sensor_id;sensor_type;location;lat;lon;timestamp;P1;durP1;ratioP1;P2;durP2;ratioP2
2638;SDS011;1329;51.384;7.122;2024-02-15T00:00:12;8.40;;;7.60;;
2638;SDS011;1329;51.384;7.122;2024-02-15T00:02:42;8.18;;;7.35;;
2638;SDS011;1329;51.384;7.122;2024-02-15T00:05:09;8.30;;;7.55;;
2638;SDS011;1329;51.384;7.122;2024-02-15T00:07:38;7.72;;;6.97;;
2638;SDS011;1329;51.384;7.122;2024-02-15T00:10:05;7.32;;;6.60;;
2638;SDS011;1329;51.384;7.122;2024-02-15T00:12:34;7.90;;;6.88;;
2638;SDS011;1329;51.384;7.122;2024-02-15T00:15:02;7.72;;;7.03;;
2638;SDS011;1329;51.384;7.122;2024-02-15T00:17:33;7.88;;;7.07;;
2638;SDS011;1329;51.384;7.122;2024-02-15T00:20:01;8.32;;;7.55;;
2638;SDS011;1329;51.384;7.122;2024-02-15T00:22:34;8.75;;;7.57;;
2638;SDS011;1329;51.384;7.122;2024-02-15T00:25:03;8.27;;;7.47;;
2638;SDS011;1329;51.384;7.122;2024-02-15T00:27:33;8.68;;;7.95;;
2638;SDS011;1329;51.384;7.122;2024-02-15T00:30:02;9.00;;;8.10;;
2638;SDS011;1329;51.384;7.122;2024-02-15T00:32:34;9.05;;;8.23;;
2638;SDS011;1329;51.384;7.122;2024-02-15T00:35:02;9.27;;;7.72;;
2638;SDS011;1329;51.384;7.122;2024-02-15T00:37:33;9.02;;;8.25;;
2638;SDS011;1329;51.384;7.122;2024-02-15T00:40:00;8.82;;;8.00;;
2638;SDS011;1329;51.384;7.122;2024-02-15T00:42:29;9.27;;;8.38;;
2638;SDS011;1329;51.384;7.122;2024-02-15T00:44:58;8.32;;;7.53;;
2638;SDS011;1329;51.384;7.122;2024-02-15T00:47:25;9.00;;;8.10;;
2638;SDS011;1329;51.384;7.122;2024-02-15T00:49:55;8.15;;;7.38;;
2638;SDS011;1329;51.384;7.122;2024-02-15T00:52:23;9.45;;;8.43;;
2638;SDS011;1329;51.384;7.122;2024-02-15T00:54:50;8.88;;;7.97;;
2638;SDS011;1329;51.384;7.122;2024-02-15T00:57:18;8.55;;;7.65;;
2638;SDS011;1329;51.384;7.122;2024-02-15T00:59:46;8.38;;;7.47;;
2638;SDS011;1329;51.384;7.122;2024-02-15T01:02:13;8.00;;;7.20;;
2638;SDS011;1329;51.384;7.122;2024-02-15T01:04:41;7.32;;;6.72;;
2638;SDS011;1329;51.384;7.122;2024-02-15T01:07:12;8.05;;;7.35;;
2638;SDS011;1329;51.384;7.122;2024-02-15T01:09:40;9.23;;;8.20;;
2638;SDS011;1329;51.384;7.122;2024-02-15T01:12:07;10.25;;;8.48;;
2638;SDS011;1329;51.384;7.122;2024-02-15T01:14:35;9.80;;;8.82;;
2638;SDS011;1329;51.384;7.122;2024-02-15T01:17:03;10.23;;;9.23;;
2638;SDS011;1329;51.384;7.122;2024-02-15T01:19:31;10.52;;;9.52;;
2638;SDS011;1329;51.384;7.122;2024-02-15T01:21:58;10.73;;;9.05;;
2638;SDS011;1329;51.384;7.122;2024-02-15T01:24:27;9.93;;;8.93;;
2638;SDS011;1329;51.384;7.122;2024-02-15T01:26:55;9.85;;;9.00;;
2638;SDS011;1329;51.384;7.122;2024-02-15T01:29:23;9.48;;;8.63;;
2638;SDS011;1329;51.384;7.122;2024-02-15T01:31:50;10.07;;;9.07;;
2638;SDS011;1329;51.384;7.122;2024-02-15T01:34:18;10.18;;;9.02;;
2638;SDS011;1329;51.384;7.122;2024-02-15T01:36:47;12.18;;;8.60;;
2638;SDS011;1329;51.384;7.122;2024-02-15T01:39:15;9.63;;;8.70;;
2638;SDS011;1329;51.384;7.122;2024-02-15T01:41:47;10.30;;;9.30;;
2638;SDS011;1329;51.384;7.122;2024-02-15T01:44:16;10.30;;;9.32;;
2638;SDS011;1329;51.384;7.122;2024-02-15T01:46:45;11.02;;;9.93;;
2638;SDS011;1329;51.384;7.122;2024-02-15T01:49:15;12.07;;;10.85;;
2638;SDS011;1329;51.384;7.122;2024-02-15T01:51:43;12.85;;;11.60;;
2638;SDS011;1329;51.384;7.122;2024-02-15T01:54:11;12.35;;;11.02;;
2638;SDS011;1329;51.384;7.122;2024-02-15T01:56:42;13.07;;;11.75;;
2638;SDS011;1329;51.384;7.122;2024-02-15T01:59:11;12.02;;;10.82;;
2638;SDS011;1329;51.384;7.122;2024-02-15T02:01:44;11.23;;;10.23;;
2638;SDS011;1329;51.384;7.122;2024-02-15T02:04:12;10.90;;;9.80;;
2638;SDS011;1329;51.384;7.122;2024-02-15T02:06:39;10.32;;;9.23;;
2638;SDS011;1329;51.384;7.122;2024-02-15T02:09:08;9.73;;;8.68;;
2638;SDS011;1329;51.384;7.122;2024-02-15T02:11:39;9.93;;;8.98;;
2638;SDS011;1329;51.384;7.122;2024-02-15T02:14:07;9.85;;;8.95;;
2638;SDS011;1329;51.384;7.122;2024-02-15T02:16:38;9.52;;;8.50;;
2638;SDS011;1329;51.384;7.122;2024-02-15T02:19:06;9.50;;;8.60;;
2638;SDS011;1329;51.384;7.122;2024-02-15T02:21:34;8.77;;;7.68;;
2638;SDS011;1329;51.384;7.122;2024-02-15T02:24:07;9.15;;;7.85;;
2638;SDS011;1329;51.384;7.122;2024-02-15T02:26:41;10.40;;;8.10;;
2638;SDS011;1329;51.384;7.122;2024-02-15T02:29:09;8.75;;;7.72;;
2638;SDS011;1329;51.384;7.122;2024-02-15T02:31:37;8.75;;;7.65;;
2638;SDS011;1329;51.384;7.122;2024-02-15T02:34:05;8.15;;;7.13;;
2638;SDS011;1329;51.384;7.122;2024-02-15T02:36:33;8.27;;;7.47;;
2638;SDS011;1329;51.384;7.122;2024-02-15T02:39:01;9.07;;;7.30;;
2638;SDS011;1329;51.384;7.122;2024-02-15T02:41:29;8.32;;;7.03;;
2638;SDS011;1329;51.384;7.122;2024-02-15T02:43:58;8.10;;;7.30;;
2638;SDS011;1329;51.384;7.122;2024-02-15T02:46:26;7.68;;;6.45;;
2638;SDS011;1329;51.384;7.122;2024-02-15T02:48:53;9.73;;;6.80;;
2638;SDS011;1329;51.384;7.122;2024-02-15T02:51:21;7.18;;;6.47;;
2638;SDS011;1329;51.384;7.122;2024-02-15T02:53:48;7.03;;;6.30;;
2638;SDS011;1329;51.384;7.122;2024-02-15T02:56:16;7.00;;;6.10;;
2638;SDS011;1329;51.384;7.122;2024-02-15T02:58:44;7.50;;;6.32;;
2638;SDS011;1329;51.384;7.122;2024-02-15T03:01:13;9.60;;;6.47;;
2638;SDS011;1329;51.384;7.122;2024-02-15T03:03:42;10.68;;;7.13;;
2638;SDS011;1329;51.384;7.122;2024-02-15T03:06:10;7.18;;;6.03;;
2638;SDS011;1329;51.384;7.122;2024-02-15T03:08:38;8.20;;;6.53;;
2638;SDS011;1329;51.384;7.122;2024-02-15T03:11:05;6.90;;;6.03;;
2638;SDS011;1329;51.384;7.122;2024-02-15T03:13:34;9.25;;;7.10;;
2638;SDS011;1329;51.384;7.122;2024-02-15T03:16:02;9.95;;;7.13;;
2638;SDS011;1329;51.384;7.122;2024-02-15T03:18:32;8.55;;;6.68;;
2638;SDS011;1329;51.384;7.122;2024-02-15T03:21:00;9.27;;;7.03;;
2638;SDS011;1329;51.384;7.122;2024-02-15T03:23:29;11.07;;;7.10;;
2638;SDS011;1329;51.384;7.122;2024-02-15T03:25:58;7.65;;;6.85;;
2638;SDS011;1329;51.384;7.122;2024-02-15T03:28:27;8.15;;;7.07;;
2638;SDS011;1329;51.384;7.122;2024-02-15T03:30:55;7.65;;;6.88;;
2638;SDS011;1329;51.384;7.122;2024-02-15T03:33:25;9.80;;;6.97;;
2638;SDS011;1329;51.384;7.122;2024-02-15T03:35:59;8.70;;;7.15;;
2638;SDS011;1329;51.384;7.122;2024-02-15T03:38:27;8.82;;;7.38;;
2638;SDS011;1329;51.384;7.122;2024-02-15T03:40:56;8.18;;;7.05;;
2638;SDS011;1329;51.384;7.122;2024-02-15T03:43:24;8.68;;;7.50;;
2638;SDS011;1329;51.384;7.122;2024-02-15T03:45:52;9.63;;;6.78;;
2638;SDS011;1329;51.384;7.122;2024-02-15T03:48:20;8.52;;;7.63;;
2638;SDS011;1329;51.384;7.122;2024-02-15T03:50:48;10.90;;;7.10;;
2638;SDS011;1329;51.384;7.122;2024-02-15T03:53:17;9.25;;;7.18;;
2638;SDS011;1329;51.384;7.122;2024-02-15T03:55:44;8.60;;;6.32;;
2638;SDS011;1329;51.384;7.122;2024-02-15T03:58:12;8.60;;;6.95;;
2638;SDS011;1329;51.384;7.122;2024-02-15T04:00:40;8.85;;;6.72;;
2638;SDS011;1329;51.384;7.122;2024-02-15T04:03:07;8.10;;;6.28;;
2638;SDS011;1329;51.384;7.122;2024-02-15T04:05:35;6.85;;;6.15;;
2638;SDS011;1329;51.384;7.122;2024-02-15T04:08:03;6.97;;;6.22;;
2638;SDS011;1329;51.384;7.122;2024-02-15T04:10:32;9.13;;;6.40;;
2638;SDS011;1329;51.384;7.122;2024-02-15T04:13:00;7.53;;;5.90;;
2638;SDS011;1329;51.384;7.122;2024-02-15T04:15:27;7.32;;;5.75;;
2638;SDS011;1329;51.384;7.122;2024-02-15T04:17:54;7.57;;;6.03;;
2638;SDS011;1329;51.384;7.122;2024-02-15T04:20:22;6.32;;;5.55;;
2638;SDS011;1329;51.384;7.122;2024-02-15T04:22:50;6.18;;;5.43;;
2638;SDS011;1329;51.384;7.122;2024-02-15T04:25:17;5.97;;;4.68;;
2638;SDS011;1329;51.384;7.122;2024-02-15T04:27:49;7.15;;;5.03;;
2638;SDS011;1329;51.384;7.122;2024-02-15T04:30:16;6.20;;;5.00;;
2638;SDS011;1329;51.384;7.122;2024-02-15T04:32:44;5.90;;;4.70;;
2638;SDS011;1329;51.384;7.122;2024-02-15T04:35:12;6.35;;;4.50;;
2638;SDS011;1329;51.384;7.122;2024-02-15T04:37:39;4.78;;;4.38;;
2638;SDS011;1329;51.384;7.122;2024-02-15T04:40:07;5.22;;;4.20;;
2638;SDS011;1329;51.384;7.122;2024-02-15T04:42:36;5.50;;;4.22;;
2638;SDS011;1329;51.384;7.122;2024-02-15T04:45:06;5.28;;;3.95;;
2638;SDS011;1329;51.384;7.122;2024-02-15T04:47:36;5.20;;;3.83;;
2638;SDS011;1329;51.384;7.122;2024-02-15T04:50:03;4.97;;;3.50;;
2638;SDS011;1329;51.384;7.122;2024-02-15T04:52:34;4.50;;;3.70;;
2638;SDS011;1329;51.384;7.122;2024-02-15T04:55:01;3.95;;;3.13;;
2638;SDS011;1329;51.384;7.122;2024-02-15T04:57:30;4.63;;;3.47;;
2638;SDS011;1329;51.384;7.122;2024-02-15T04:59:59;4.05;;;3.15;;
2638;SDS011;1329;51.384;7.122;2024-02-15T05:02:31;3.63;;;3.10;;
2638;SDS011;1329;51.384;7.122;2024-02-15T05:05:01;3.47;;;3.10;;
2638;SDS011;1329;51.384;7.122;2024-02-15T05:07:29;3.10;;;2.80;;
2638;SDS011;1329;51.384;7.122;2024-02-15T05:09:56;3.38;;;2.80;;
2638;SDS011;1329;51.384;7.122;2024-02-15T05:12:24;4.90;;;3.20;;
2638;SDS011;1329;51.384;7.122;2024-02-15T05:14:51;3.55;;;2.85;;
2638;SDS011;1329;51.384;7.122;2024-02-15T05:17:18;4.70;;;2.95;;
2638;SDS011;1329;51.384;7.122;2024-02-15T05:19:49;3.50;;;2.63;;
2638;SDS011;1329;51.384;7.122;2024-02-15T05:22:17;4.15;;;2.88;;
2638;SDS011;1329;51.384;7.122;2024-02-15T05:24:44;3.20;;;2.90;;
2638;SDS011;1329;51.384;7.122;2024-02-15T05:27:11;2.90;;;2.60;;
2638;SDS011;1329;51.384;7.122;2024-02-15T05:29:38;4.63;;;3.03;;
2638;SDS011;1329;51.384;7.122;2024-02-15T05:32:08;4.57;;;2.70;;
2638;SDS011;1329;51.384;7.122;2024-02-15T05:34:35;4.20;;;2.72;;
2638;SDS011;1329;51.384;7.122;2024-02-15T05:37:06;3.35;;;2.78;;
2638;SDS011;1329;51.384;7.122;2024-02-15T05:39:33;3.58;;;3.28;;
2638;SDS011;1329;51.384;7.122;2024-02-15T05:42:00;4.13;;;2.67;;
2638;SDS011;1329;51.384;7.122;2024-02-15T05:44:27;3.65;;;2.90;;
2638;SDS011;1329;51.384;7.122;2024-02-15T05:46:55;3.15;;;2.83;;
2638;SDS011;1329;51.384;7.122;2024-02-15T05:49:22;3.03;;;2.72;;
2638;SDS011;1329;51.384;7.122;2024-02-15T05:51:50;3.63;;;2.83;;
2638;SDS011;1329;51.384;7.122;2024-02-15T05:54:20;3.63;;;2.70;;
2638;SDS011;1329;51.384;7.122;2024-02-15T05:56:48;6.00;;;2.80;;
2638;SDS011;1329;51.384;7.122;2024-02-15T05:59:17;2.88;;;2.60;;
2638;SDS011;1329;51.384;7.122;2024-02-15T06:01:45;3.50;;;2.70;;
2638;SDS011;1329;51.384;7.122;2024-02-15T06:04:14;4.28;;;2.67;;
2638;SDS011;1329;51.384;7.122;2024-02-15T06:06:41;3.00;;;2.63;;
2638;SDS011;1329;51.384;7.122;2024-02-15T06:09:13;3.20;;;2.90;;
2638;SDS011;1329;51.384;7.122;2024-02-15T06:11:42;3.55;;;3.25;;
2638;SDS011;1329;51.384;7.122;2024-02-15T06:14:10;4.03;;;3.03;;
2638;SDS011;1329;51.384;7.122;2024-02-15T06:16:41;3.15;;;2.63;;
2638;SDS011;1329;51.384;7.122;2024-02-15T06:19:11;3.33;;;2.65;;
2638;SDS011;1329;51.384;7.122;2024-02-15T06:21:39;3.28;;;3.00;;
2638;SDS011;1329;51.384;7.122;2024-02-15T06:24:06;4.18;;;2.78;;
2638;SDS011;1329;51.384;7.122;2024-02-15T06:26:34;4.57;;;3.00;;
2638;SDS011;1329;51.384;7.122;2024-02-15T06:29:02;4.03;;;2.75;;
2638;SDS011;1329;51.384;7.122;2024-02-15T06:31:47;3.67;;;2.42;;
2638;SDS011;1329;51.384;7.122;2024-02-15T06:34:31;3.67;;;2.65;;
2638;SDS011;1329;51.384;7.122;2024-02-15T06:40:21;4.32;;;2.83;;
2638;SDS011;1329;51.384;7.122;2024-02-15T06:42:48;4.72;;;3.40;;
2638;SDS011;1329;51.384;7.122;2024-02-15T06:45:17;3.00;;;2.50;;
2638;SDS011;1329;51.384;7.122;2024-02-15T06:47:44;3.03;;;2.65;;
2638;SDS011;1329;51.384;7.122;2024-02-15T06:50:12;3.80;;;2.92;;
2638;SDS011;1329;51.384;7.122;2024-02-15T06:52:40;3.72;;;2.75;;
2638;SDS011;1329;51.384;7.122;2024-02-15T06:55:07;4.30;;;2.95;;
2638;SDS011;1329;51.384;7.122;2024-02-15T06:57:36;3.95;;;2.80;;
2638;SDS011;1329;51.384;7.122;2024-02-15T07:00:06;3.30;;;2.85;;
2638;SDS011;1329;51.384;7.122;2024-02-15T07:02:41;4.75;;;3.28;;
2638;SDS011;1329;51.384;7.122;2024-02-15T07:05:09;3.67;;;3.05;;
2638;SDS011;1329;51.384;7.122;2024-02-15T07:07:37;4.13;;;3.40;;
2638;SDS011;1329;51.384;7.122;2024-02-15T07:10:08;4.97;;;3.35;;
2638;SDS011;1329;51.384;7.122;2024-02-15T07:12:35;4.72;;;3.05;;
2638;SDS011;1329;51.384;7.122;2024-02-15T07:15:03;4.22;;;3.22;;
2638;SDS011;1329;51.384;7.122;2024-02-15T07:17:34;4.25;;;3.40;;
2638;SDS011;1329;51.384;7.122;2024-02-15T07:20:03;6.43;;;3.72;;
2638;SDS011;1329;51.384;7.122;2024-02-15T07:22:32;4.15;;;3.33;;
2638;SDS011;1329;51.384;7.122;2024-02-15T07:25:00;4.85;;;2.90;;
2638;SDS011;1329;51.384;7.122;2024-02-15T07:27:29;4.38;;;3.00;;
2638;SDS011;1329;51.384;7.122;2024-02-15T07:30:00;7.45;;;2.72;;
2638;SDS011;1329;51.384;7.122;2024-02-15T07:32:28;5.35;;;3.03;;
2638;SDS011;1329;51.384;7.122;2024-02-15T07:34:56;4.57;;;3.13;;
2638;SDS011;1329;51.384;7.122;2024-02-15T07:37:24;4.95;;;2.90;;
2638;SDS011;1329;51.384;7.122;2024-02-15T07:39:52;4.22;;;2.92;;
2638;SDS011;1329;51.384;7.122;2024-02-15T07:42:19;4.70;;;3.20;;
2638;SDS011;1329;51.384;7.122;2024-02-15T07:44:48;3.60;;;3.00;;
2638;SDS011;1329;51.384;7.122;2024-02-15T07:47:16;4.13;;;3.15;;
2638;SDS011;1329;51.384;7.122;2024-02-15T07:49:45;3.95;;;3.15;;
2638;SDS011;1329;51.384;7.122;2024-02-15T07:52:13;5.05;;;3.00;;
2638;SDS011;1329;51.384;7.122;2024-02-15T07:54:41;5.07;;;3.15;;
2638;SDS011;1329;51.384;7.122;2024-02-15T07:57:08;3.47;;;2.70;;
2638;SDS011;1329;51.384;7.122;2024-02-15T07:59:36;3.60;;;2.40;;
2638;SDS011;1329;51.384;7.122;2024-02-15T08:02:04;3.72;;;2.97;;
2638;SDS011;1329;51.384;7.122;2024-02-15T08:04:31;4.50;;;2.75;;
2638;SDS011;1329;51.384;7.122;2024-02-15T08:07:05;4.18;;;2.75;;
2638;SDS011;1329;51.384;7.122;2024-02-15T08:09:35;4.55;;;2.78;;
2638;SDS011;1329;51.384;7.122;2024-02-15T08:12:04;4.28;;;2.63;;
2638;SDS011;1329;51.384;7.122;2024-02-15T08:14:32;3.88;;;2.90;;
2638;SDS011;1329;51.384;7.122;2024-02-15T08:16:59;3.45;;;2.35;;
2638;SDS011;1329;51.384;7.122;2024-02-15T08:19:28;4.07;;;2.72;;
2638;SDS011;1329;51.384;7.122;2024-02-15T08:21:55;2.95;;;2.28;;
2638;SDS011;1329;51.384;7.122;2024-02-15T08:24:22;4.75;;;2.45;;
2638;SDS011;1329;51.384;7.122;2024-02-15T08:26:50;3.83;;;2.40;;
2638;SDS011;1329;51.384;7.122;2024-02-15T08:29:19;5.85;;;2.50;;
2638;SDS011;1329;51.384;7.122;2024-02-15T08:31:46;3.53;;;2.47;;
2638;SDS011;1329;51.384;7.122;2024-02-15T08:34:14;3.00;;;2.50;;
2638;SDS011;1329;51.384;7.122;2024-02-15T08:36:43;3.63;;;2.50;;
2638;SDS011;1329;51.384;7.122;2024-02-15T08:39:10;5.22;;;2.65;;
2638;SDS011;1329;51.384;7.122;2024-02-15T08:41:37;3.22;;;2.28;;
2638;SDS011;1329;51.384;7.122;2024-02-15T08:44:05;4.18;;;2.28;;
2638;SDS011;1329;51.384;7.122;2024-02-15T08:46:38;3.25;;;2.10;;
2638;SDS011;1329;51.384;7.122;2024-02-15T08:49:04;2.78;;;2.17;;
2638;SDS011;1329;51.384;7.122;2024-02-15T08:51:31;2.65;;;1.90;;
2638;SDS011;1329;51.384;7.122;2024-02-15T08:53:59;4.63;;;2.30;;
2638;SDS011;1329;51.384;7.122;2024-02-15T08:56:26;3.80;;;2.13;;
2638;SDS011;1329;51.384;7.122;2024-02-15T08:58:53;2.85;;;1.75;;
2638;SDS011;1329;51.384;7.122;2024-02-15T09:01:22;2.83;;;2.30;;
2638;SDS011;1329;51.384;7.122;2024-02-15T09:03:51;3.47;;;2.45;;
2638;SDS011;1329;51.384;7.122;2024-02-15T09:06:18;3.35;;;2.40;;
2638;SDS011;1329;51.384;7.122;2024-02-15T09:08:47;3.95;;;2.78;;
2638;SDS011;1329;51.384;7.122;2024-02-15T09:11:14;3.42;;;2.45;;
2638;SDS011;1329;51.384;7.122;2024-02-15T09:13:41;4.32;;;2.55;;
2638;SDS011;1329;51.384;7.122;2024-02-15T09:16:09;4.57;;;2.35;;
2638;SDS011;1329;51.384;7.122;2024-02-15T09:18:36;3.33;;;2.38;;
2638;SDS011;1329;51.384;7.122;2024-02-15T09:21:11;3.88;;;2.20;;
2638;SDS011;1329;51.384;7.122;2024-02-15T09:23:39;3.13;;;2.13;;
2638;SDS011;1329;51.384;7.122;2024-02-15T09:26:06;3.65;;;2.20;;
2638;SDS011;1329;51.384;7.122;2024-02-15T09:28:35;3.75;;;2.47;;
2638;SDS011;1329;51.384;7.122;2024-02-15T09:31:02;3.13;;;2.08;;
2638;SDS011;1329;51.384;7.122;2024-02-15T09:33:29;4.78;;;2.08;;
2638;SDS011;1329;51.384;7.122;2024-02-15T09:35:56;3.45;;;2.10;;
2638;SDS011;1329;51.384;7.122;2024-02-15T09:38:25;2.92;;;2.00;;
2638;SDS011;1329;51.384;7.122;2024-02-15T09:40:52;4.63;;;2.08;;
2638;SDS011;1329;51.384;7.122;2024-02-15T09:43:20;2.67;;;1.83;;
2638;SDS011;1329;51.384;7.122;2024-02-15T09:45:51;3.28;;;2.05;;
2638;SDS011;1329;51.384;7.122;2024-02-15T09:48:19;3.83;;;2.10;;
2638;SDS011;1329;51.384;7.122;2024-02-15T09:50:52;3.58;;;2.17;;
2638;SDS011;1329;51.384;7.122;2024-02-15T09:53:21;2.28;;;1.73;;
2638;SDS011;1329;51.384;7.122;2024-02-15T09:55:52;3.35;;;2.38;;
2638;SDS011;1329;51.384;7.122;2024-02-15T09:58:20;2.70;;;2.08;;
2638;SDS011;1329;51.384;7.122;2024-02-15T10:00:49;3.03;;;2.30;;
2638;SDS011;1329;51.384;7.122;2024-02-15T10:03:18;3.55;;;1.75;;
2638;SDS011;1329;51.384;7.122;2024-02-15T10:05:47;2.15;;;1.70;;
2638;SDS011;1329;51.384;7.122;2024-02-15T10:08:16;4.07;;;2.10;;
2638;SDS011;1329;51.384;7.122;2024-02-15T10:10:43;2.03;;;1.63;;
2638;SDS011;1329;51.384;7.122;2024-02-15T10:13:13;2.45;;;1.80;;
2638;SDS011;1329;51.384;7.122;2024-02-15T10:15:42;2.15;;;1.90;;
2638;SDS011;1329;51.384;7.122;2024-02-15T10:18:10;2.53;;;1.88;;
2638;SDS011;1329;51.384;7.122;2024-02-15T10:20:41;3.28;;;1.67;;
2638;SDS011;1329;51.384;7.122;2024-02-15T10:23:09;2.65;;;1.63;;
2638;SDS011;1329;51.384;7.122;2024-02-15T10:25:36;3.70;;;1.70;;
2638;SDS011;1329;51.384;7.122;2024-02-15T10:28:04;2.90;;;2.08;;
2638;SDS011;1329;51.384;7.122;2024-02-15T10:30:35;3.15;;;1.80;;
2638;SDS011;1329;51.384;7.122;2024-02-15T10:33:03;2.22;;;1.70;;
2638;SDS011;1329;51.384;7.122;2024-02-15T10:35:32;3.45;;;1.75;;
2638;SDS011;1329;51.384;7.122;2024-02-15T10:38:06;2.55;;;1.85;;
2638;SDS011;1329;51.384;7.122;2024-02-15T10:40:35;3.28;;;1.90;;
2638;SDS011;1329;51.384;7.122;2024-02-15T10:43:04;4.20;;;1.70;;
2638;SDS011;1329;51.384;7.122;2024-02-15T10:45:31;3.40;;;1.65;;
2638;SDS011;1329;51.384;7.122;2024-02-15T10:48:02;3.08;;;2.03;;
2638;SDS011;1329;51.384;7.122;2024-02-15T10:50:30;2.40;;;1.70;;
2638;SDS011;1329;51.384;7.122;2024-02-15T10:52:58;3.45;;;1.80;;
2638;SDS011;1329;51.384;7.122;2024-02-15T10:55:30;2.28;;;1.88;;
2638;SDS011;1329;51.384;7.122;2024-02-15T10:58:05;5.18;;;1.85;;
2638;SDS011;1329;51.384;7.122;2024-02-15T11:00:39;3.13;;;1.90;;
2638;SDS011;1329;51.384;7.122;2024-02-15T11:03:08;2.65;;;1.60;;
2638;SDS011;1329;51.384;7.122;2024-02-15T11:05:41;3.05;;;2.00;;
2638;SDS011;1329;51.384;7.122;2024-02-15T11:08:11;4.05;;;1.70;;
2638;SDS011;1329;51.384;7.122;2024-02-15T11:10:38;2.67;;;1.52;;
2638;SDS011;1329;51.384;7.122;2024-02-15T11:13:08;4.55;;;1.70;;
2638;SDS011;1329;51.384;7.122;2024-02-15T11:15:47;4.78;;;1.77;;
2638;SDS011;1329;51.384;7.122;2024-02-15T11:21:14;2.95;;;1.90;;
2638;SDS011;1329;51.384;7.122;2024-02-15T11:23:42;3.28;;;1.90;;
2638;SDS011;1329;51.384;7.122;2024-02-15T11:26:42;3.10;;;1.80;;
2638;SDS011;1329;51.384;7.122;2024-02-15T11:32:39;2.40;;;1.58;;
2638;SDS011;1329;51.384;7.122;2024-02-15T11:35:10;4.25;;;1.90;;
2638;SDS011;1329;51.384;7.122;2024-02-15T11:37:49;3.90;;;1.70;;
2638;SDS011;1329;51.384;7.122;2024-02-15T11:40:24;1.88;;;1.65;;
2638;SDS011;1329;51.384;7.122;2024-02-15T11:42:58;5.35;;;1.73;;
2638;SDS011;1329;51.384;7.122;2024-02-15T11:45:28;1.63;;;1.30;;
2638;SDS011;1329;51.384;7.122;2024-02-15T11:48:00;2.25;;;1.40;;
2638;SDS011;1329;51.384;7.122;2024-02-15T11:50:27;3.38;;;1.67;;
2638;SDS011;1329;51.384;7.122;2024-02-15T11:53:01;2.40;;;1.67;;
2638;SDS011;1329;51.384;7.122;2024-02-15T11:55:34;3.15;;;1.80;;
2638;SDS011;1329;51.384;7.122;2024-02-15T11:58:03;2.30;;;1.60;;
2638;SDS011;1329;51.384;7.122;2024-02-15T12:00:42;3.15;;;1.65;;
2638;SDS011;1329;51.384;7.122;2024-02-15T12:03:28;2.08;;;1.65;;
2638;SDS011;1329;51.384;7.122;2024-02-15T12:06:16;2.75;;;1.67;;
2638;SDS011;1329;51.384;7.122;2024-02-15T12:09:04;3.00;;;1.60;;
2638;SDS011;1329;51.384;7.122;2024-02-15T12:11:57;2.75;;;1.50;;
2638;SDS011;1329;51.384;7.122;2024-02-15T12:14:47;3.00;;;1.50;;
2638;SDS011;1329;51.384;7.122;2024-02-15T12:17:32;3.00;;;1.67;;
2638;SDS011;1329;51.384;7.122;2024-02-15T12:20:18;2.35;;;1.30;;
2638;SDS011;1329;51.384;7.122;2024-02-15T12:22:52;2.67;;;1.50;;
2638;SDS011;1329;51.384;7.122;2024-02-15T12:25:19;2.92;;;1.23;;
2638;SDS011;1329;51.384;7.122;2024-02-15T12:27:51;2.00;;;1.40;;
2638;SDS011;1329;51.384;7.122;2024-02-15T12:30:22;2.72;;;1.38;;
2638;SDS011;1329;51.384;7.122;2024-02-15T12:32:53;2.97;;;1.63;;
2638;SDS011;1329;51.384;7.122;2024-02-15T12:35:52;2.72;;;1.30;;
2638;SDS011;1329;51.384;7.122;2024-02-15T12:38:30;2.75;;;1.17;;
2638;SDS011;1329;51.384;7.122;2024-02-15T12:40:59;2.95;;;1.40;;
2638;SDS011;1329;51.384;7.122;2024-02-15T12:43:32;2.05;;;1.50;;
2638;SDS011;1329;51.384;7.122;2024-02-15T12:46:00;2.58;;;1.40;;
2638;SDS011;1329;51.384;7.122;2024-02-15T12:48:31;2.00;;;1.15;;
2638;SDS011;1329;51.384;7.122;2024-02-15T12:51:12;2.40;;;1.27;;
2638;SDS011;1329;51.384;7.122;2024-02-15T12:53:52;1.42;;;1.20;;
2638;SDS011;1329;51.384;7.122;2024-02-15T12:56:19;2.85;;;1.35;;
2638;SDS011;1329;51.384;7.122;2024-02-15T12:58:49;2.22;;;1.30;;
2638;SDS011;1329;51.384;7.122;2024-02-15T13:01:16;2.00;;;1.20;;
2638;SDS011;1329;51.384;7.122;2024-02-15T13:03:45;2.33;;;1.65;;
2638;SDS011;1329;51.384;7.122;2024-02-15T13:06:14;2.28;;;1.40;;
2638;SDS011;1329;51.384;7.122;2024-02-15T13:08:41;3.50;;;1.48;;
2638;SDS011;1329;51.384;7.122;2024-02-15T13:11:15;2.30;;;1.40;;
2638;SDS011;1329;51.384;7.122;2024-02-15T13:13:42;2.25;;;1.30;;
2638;SDS011;1329;51.384;7.122;2024-02-15T13:16:16;2.00;;;1.40;;
2638;SDS011;1329;51.384;7.122;2024-02-15T13:18:45;2.63;;;1.40;;
2638;SDS011;1329;51.384;7.122;2024-02-15T13:21:16;2.35;;;1.20;;
2638;SDS011;1329;51.384;7.122;2024-02-15T13:23:55;2.75;;;1.50;;
2638;SDS011;1329;51.384;7.122;2024-02-15T13:26:22;3.20;;;1.60;;
2638;SDS011;1329;51.384;7.122;2024-02-15T13:28:51;1.92;;;1.50;;
2638;SDS011;1329;51.384;7.122;2024-02-15T13:31:19;3.10;;;1.40;;
2638;SDS011;1329;51.384;7.122;2024-02-15T13:34:02;2.80;;;1.50;;
2638;SDS011;1329;51.384;7.122;2024-02-15T13:36:47;2.58;;;1.50;;
2638;SDS011;1329;51.384;7.122;2024-02-15T13:39:17;3.83;;;1.45;;
2638;SDS011;1329;51.384;7.122;2024-02-15T13:41:58;2.33;;;1.45;;
2638;SDS011;1329;51.384;7.122;2024-02-15T13:44:40;2.08;;;1.25;;
2638;SDS011;1329;51.384;7.122;2024-02-15T13:47:13;3.85;;;1.80;;
2638;SDS011;1329;51.384;7.122;2024-02-15T13:49:55;2.33;;;1.40;;
2638;SDS011;1329;51.384;7.122;2024-02-15T13:52:26;2.08;;;1.40;;
2638;SDS011;1329;51.384;7.122;2024-02-15T13:54:53;1.80;;;1.30;;
2638;SDS011;1329;51.384;7.122;2024-02-15T13:57:21;2.55;;;1.40;;
2638;SDS011;1329;51.384;7.122;2024-02-15T13:59:51;2.10;;;1.40;;
2638;SDS011;1329;51.384;7.122;2024-02-15T14:02:18;1.95;;;1.48;;
2638;SDS011;1329;51.384;7.122;2024-02-15T14:04:45;3.85;;;1.50;;
2638;SDS011;1329;51.384;7.122;2024-02-15T14:07:22;3.53;;;1.65;;
2638;SDS011;1329;51.384;7.122;2024-02-15T14:09:53;3.72;;;1.80;;
2638;SDS011;1329;51.384;7.122;2024-02-15T14:12:25;2.85;;;1.33;;
2638;SDS011;1329;51.384;7.122;2024-02-15T14:14:58;2.95;;;1.55;;
2638;SDS011;1329;51.384;7.122;2024-02-15T14:17:34;2.17;;;1.30;;
2638;SDS011;1329;51.384;7.122;2024-02-15T14:20:11;1.83;;;1.38;;
2638;SDS011;1329;51.384;7.122;2024-02-15T14:22:43;1.77;;;1.23;;
2638;SDS011;1329;51.384;7.122;2024-02-15T14:25:17;1.77;;;1.40;;
2638;SDS011;1329;51.384;7.122;2024-02-15T14:27:53;3.42;;;1.30;;
2638;SDS011;1329;51.384;7.122;2024-02-15T14:30:22;2.28;;;1.35;;
2638;SDS011;1329;51.384;7.122;2024-02-15T14:33:06;1.80;;;1.05;;
2638;SDS011;1329;51.384;7.122;2024-02-15T14:35:37;2.00;;;1.65;;
2638;SDS011;1329;51.384;7.122;2024-02-15T14:38:12;3.17;;;1.67;;
2638;SDS011;1329;51.384;7.122;2024-02-15T14:43:31;2.22;;;1.65;;
2638;SDS011;1329;51.384;7.122;2024-02-15T14:46:01;1.60;;;1.38;;
2638;SDS011;1329;51.384;7.122;2024-02-15T14:48:33;2.42;;;1.38;;
2638;SDS011;1329;51.384;7.122;2024-02-15T14:51:00;2.65;;;1.60;;
2638;SDS011;1329;51.384;7.122;2024-02-15T14:53:30;2.88;;;1.42;;
2638;SDS011;1329;51.384;7.122;2024-02-15T14:55:58;2.65;;;1.60;;
2638;SDS011;1329;51.384;7.122;2024-02-15T14:58:28;1.65;;;1.40;;
2638;SDS011;1329;51.384;7.122;2024-02-15T15:01:01;2.72;;;1.25;;
2638;SDS011;1329;51.384;7.122;2024-02-15T15:03:34;2.78;;;1.52;;
2638;SDS011;1329;51.384;7.122;2024-02-15T15:06:04;2.60;;;1.48;;
2638;SDS011;1329;51.384;7.122;2024-02-15T15:08:51;3.38;;;1.40;;
2638;SDS011;1329;51.384;7.122;2024-02-15T15:11:39;2.10;;;1.45;;
2638;SDS011;1329;51.384;7.122;2024-02-15T15:14:25;2.38;;;1.50;;
2638;SDS011;1329;51.384;7.122;2024-02-15T15:16:52;3.35;;;1.30;;
2638;SDS011;1329;51.384;7.122;2024-02-15T15:19:19;3.08;;;1.50;;
2638;SDS011;1329;51.384;7.122;2024-02-15T15:21:47;1.65;;;1.27;;
2638;SDS011;1329;51.384;7.122;2024-02-15T15:24:16;1.85;;;1.30;;
2638;SDS011;1329;51.384;7.122;2024-02-15T15:26:49;2.17;;;1.40;;
2638;SDS011;1329;51.384;7.122;2024-02-15T15:29:16;1.90;;;1.30;;
2638;SDS011;1329;51.384;7.122;2024-02-15T15:31:45;1.33;;;1.23;;
2638;SDS011;1329;51.384;7.122;2024-02-15T15:34:12;2.53;;;1.40;;
2638;SDS011;1329;51.384;7.122;2024-02-15T15:36:41;3.15;;;1.60;;
2638;SDS011;1329;51.384;7.122;2024-02-15T15:39:13;2.03;;;1.40;;
2638;SDS011;1329;51.384;7.122;2024-02-15T15:41:43;1.88;;;1.20;;
2638;SDS011;1329;51.384;7.122;2024-02-15T15:44:13;2.42;;;1.40;;